Mora, MN

3:40 AM CDT on September 16, 2014 (GMT -0500)
Cambridge | Change Station
CLOSE
Current Station
Personal Weather Station
Location: Cambridge, MN
Elevation: 951 ft
Nearby Weather Stations

Elev 951 ft 45.56 °N, 93.21 °W | Updated 10 minutes ago

Clear
Clear
42.1 °F
Feels Like 42 °F
N
1.0
Wind Variable Wind from SW
Gusts 3.0 mph

Today
High -- | Low -- °F
--% Chance of Precip.
Yesterday
High -- | Low -- °F
Precip. -- in
6:52 AM 7:22 PM
Waning Gibbous, 47% visible
Pressure 30.19 in
Visibility 10.0 miles
Clouds Clear
Windchill 42 °F
Dew Point 38 °F
Humidity 87%
Rainfall 0.00 in
Snow Depth Not available.
UV 0 out of 12
Pollen 3.30 out of 12
Air Quality Not available.
Flu Activity Not available.
METAR KJMR 160833Z AUTO 00000KT 10SM CLR 02/01 A3019 RMK AO2

More Conditions Fewer Conditions

Pressure 30.19 in
Visibility 10.0 miles
Clouds Clear
Windchill 42 °F
Dew Point 38 °F
Humidity 87%
Rainfall 0.00 in
Snow Depth Not available.
UV 0 out of 12
Pollen 3.30 out of 12
Air Quality Not available.
Flu Activity Not available.
METAR KJMR 160833Z AUTO 00000KT 10SM CLR 02/01 A3019 RMK AO2

More Conditions Fewer Conditions

10-Day Weather Forecast

Almanac

Astronomy

Sep. 16, 2014 Rise Set
Actual Time 6:52 AM CDT 7:22 PM CDT
Civil Twilight 6:22 AM CDT 7:52 PM CDT
Nautical Twilight 5:47 AM CDT 8:27 PM CDT
Astronomical Twilight 5:10 AM CDT 9:04 PM CDT
Moon No Moon Rise 3:00 PM CDT
Length of Visible Light 13h 29m
Length of Day
12h 29m
Tomorrow will be 3m 11s shorter.
Waning Gibbous, 47% of the Moon is Illuminated
Today
Waning Gibbous
Sep 24
New
Oct 1
First Quarter
Oct 8
Full
Oct 15
Last Quarter

Today's Extremes

State Highs State Lows

Community

WunderPhotos

Upload Photos

1,753,712 photos uploaded!

WunderBlogs® & News

Nearby

Snow Depth

Station Depth Elevation
No new snow has been reported.

Earthquake Activity

City Distance Mag. Time & Date
No recent earthquake activity has been reported nearby.
Minimum magnitude displayed is 2.5.

Coastal Water Temperatures

Place Temperature
No Stations Reporting

Nearby Weather Stations